createdAt,value
2023-03-12T00:02:00.552Z,0.30
2023-03-12T00:04:27.711Z,0.17
2023-03-12T00:06:54.295Z,0.10
2023-03-12T00:09:21.118Z,0.30
2023-03-12T00:11:47.722Z,0.03
2023-03-12T00:14:14.449Z,0.22
2023-03-12T00:16:41.108Z,0.32
2023-03-12T00:19:07.803Z,0.00
2023-03-12T00:21:34.398Z,0.20
2023-03-12T00:24:01.063Z,0.08
2023-03-12T00:26:27.867Z,0.17
2023-03-12T00:28:54.900Z,0.20
2023-03-12T00:31:27.084Z,0.00
2023-03-12T00:33:54.662Z,0.05
2023-03-12T00:36:24.894Z,0.00
2023-03-12T00:38:52.532Z,0.35
2023-03-12T00:41:22.361Z,0.10
2023-03-12T00:43:50.435Z,0.10
2023-03-12T00:46:17.665Z,0.30
2023-03-12T00:48:44.878Z,0.35
2023-03-12T00:51:12.469Z,0.00
2023-03-12T00:56:06.636Z,0.15
2023-03-12T00:58:33.625Z,0.35
2023-03-12T01:01:00.445Z,0.30
2023-03-12T01:03:27.286Z,0.20
2023-03-12T01:05:56.688Z,0.50
2023-03-12T01:08:24.657Z,0.40
2023-03-12T01:10:52.244Z,0.30
2023-03-12T01:15:45.513Z,0.00
2023-03-12T01:18:12.135Z,0.25
2023-03-12T01:20:40.820Z,0.05
2023-03-12T01:23:08.272Z,0.03
2023-03-12T01:25:36.135Z,0.35
2023-03-12T01:28:03.404Z,0.15
2023-03-12T01:30:30.675Z,0.20
2023-03-12T01:32:57.374Z,0.40
2023-03-12T01:35:24.765Z,0.30
2023-03-12T01:37:52.407Z,0.20
2023-03-12T01:42:58.337Z,0.20
2023-03-12T01:45:58.559Z,0.05
2023-03-12T01:48:28.505Z,0.20
2023-03-12T01:50:55.490Z,0.10
2023-03-12T01:53:23.062Z,0.10
2023-03-12T01:55:50.558Z,0.40
2023-03-12T02:00:45.569Z,0.28
2023-03-12T02:03:13.822Z,0.40
2023-03-12T02:05:53.182Z,0.40
2023-03-12T02:08:20.670Z,0.17
2023-03-12T02:10:47.601Z,0.45
2023-03-12T02:13:14.828Z,5.32
2023-03-12T02:15:46.910Z,3.85
2023-03-12T02:18:18.191Z,1.23
2023-03-12T02:21:15.964Z,0.88
2023-03-12T02:26:35.829Z,1.15
2023-03-12T02:29:03.935Z,1.88
2023-03-12T02:31:39.020Z,2.97
2023-03-12T02:34:06.888Z,2.83
2023-03-12T02:36:33.566Z,3.58
2023-03-12T02:39:00.315Z,3.90
2023-03-12T02:41:30.945Z,5.15
2023-03-12T02:44:11.495Z,5.55
2023-03-12T02:46:43.898Z,7.57
2023-03-12T02:49:14.580Z,5.75
2023-03-12T02:51:43.747Z,6.50
2023-03-12T02:54:12.019Z,6.55
2023-03-12T02:56:39.050Z,7.43
2023-03-12T02:59:07.261Z,9.27
2023-03-12T03:01:37.719Z,6.78
2023-03-12T03:04:07.126Z,8.02
2023-03-12T03:06:35.302Z,9.85
2023-03-12T03:09:02.364Z,7.15
2023-03-12T03:11:29.188Z,9.65
2023-03-12T03:13:56.440Z,8.10
2023-03-12T03:16:23.905Z,7.90
2023-03-12T03:18:51.352Z,8.90
2023-03-12T03:21:18.381Z,8.52
2023-03-12T03:23:50.108Z,9.23
2023-03-12T03:26:20.782Z,10.85
2023-03-12T03:28:48.802Z,10.10
2023-03-12T03:31:16.693Z,11.15
2023-03-12T03:33:43.887Z,8.35
2023-03-12T03:36:16.659Z,9.50
2023-03-12T03:38:52.554Z,10.30
2023-03-12T03:41:20.489Z,9.60
2023-03-12T03:43:47.968Z,11.90
2023-03-12T03:46:17.161Z,11.05
2023-03-12T03:48:48.008Z,10.90
2023-03-12T03:51:15.685Z,8.48
2023-03-12T03:53:45.366Z,9.57
2023-03-12T03:56:15.159Z,10.18
2023-03-12T03:58:46.357Z,9.63
2023-03-12T04:01:14.966Z,9.20
2023-03-12T04:03:43.082Z,10.43
2023-03-12T04:06:10.771Z,9.95
2023-03-12T04:08:38.384Z,10.30
2023-03-12T04:11:14.956Z,10.63
2023-03-12T04:13:43.820Z,7.53
2023-03-12T04:16:12.960Z,8.32
2023-03-12T04:18:40.221Z,8.98
2023-03-12T04:21:09.136Z,10.65
2023-03-12T04:23:36.901Z,8.40
2023-03-12T04:26:05.899Z,9.35
2023-03-12T04:28:37.271Z,9.30
2023-03-12T04:31:07.852Z,8.88
2023-03-12T04:33:41.443Z,8.95
2023-03-12T04:36:11.373Z,9.15
2023-03-12T04:38:40.458Z,10.02
2023-03-12T04:41:11.598Z,8.90
2023-03-12T04:43:43.256Z,9.95
2023-03-12T04:46:10.705Z,6.90
2023-03-12T04:48:38.147Z,8.25
2023-03-12T04:51:06.384Z,9.82
2023-03-12T04:53:33.116Z,8.00
2023-03-12T04:55:59.951Z,9.43
2023-03-12T04:58:28.007Z,8.77
2023-03-12T05:00:54.860Z,8.15
2023-03-12T05:03:22.082Z,8.60
2023-03-12T05:05:48.962Z,7.85
2023-03-12T05:08:15.795Z,7.72
2023-03-12T05:10:45.386Z,9.63
2023-03-12T05:13:16.966Z,8.52
2023-03-12T05:15:45.969Z,8.40
2023-03-12T05:18:12.751Z,8.35
2023-03-12T05:20:39.762Z,7.75
2023-03-12T05:23:07.093Z,6.65
2023-03-12T05:25:34.027Z,6.68
2023-03-12T05:28:00.951Z,8.25
2023-03-12T05:30:27.744Z,6.78
2023-03-12T05:32:54.570Z,6.72
2023-03-12T05:35:21.504Z,7.32
2023-03-12T05:37:48.176Z,6.05
2023-03-12T05:40:14.894Z,6.93
2023-03-12T05:42:41.905Z,6.90
2023-03-12T05:45:09.447Z,7.88
2023-03-12T05:47:38.656Z,6.32
2023-03-12T05:50:06.191Z,5.75
2023-03-12T05:52:32.946Z,6.72
2023-03-12T05:54:59.909Z,7.10
2023-03-12T05:57:26.606Z,5.90
2023-03-12T05:59:53.321Z,5.20
2023-03-12T06:02:20.342Z,5.68
2023-03-12T06:04:47.066Z,5.25
2023-03-12T06:07:13.798Z,4.30
2023-03-12T06:09:40.462Z,5.72
2023-03-12T06:12:07.473Z,5.20
2023-03-12T06:14:34.669Z,4.55
2023-03-12T06:17:01.284Z,4.78
2023-03-12T06:19:28.778Z,4.55
2023-03-12T06:21:55.365Z,4.63
2023-03-12T06:24:21.966Z,5.05
2023-03-12T06:26:53.617Z,5.22
2023-03-12T06:29:20.271Z,4.43
2023-03-12T06:31:48.198Z,4.40
2023-03-12T06:34:16.786Z,4.82
2023-03-12T06:36:43.777Z,4.68
2023-03-12T06:39:10.612Z,5.10
2023-03-12T06:41:37.324Z,4.65
2023-03-12T06:44:05.965Z,4.95
2023-03-12T06:46:33.057Z,4.85
2023-03-12T06:48:59.692Z,5.00
2023-03-12T06:51:26.334Z,5.28
2023-03-12T06:53:53.047Z,5.30
2023-03-12T06:56:19.806Z,5.10
2023-03-12T06:58:46.403Z,4.65
2023-03-12T07:01:13.977Z,4.55
2023-03-12T07:03:40.532Z,5.05
2023-03-12T07:06:17.509Z,4.78
2023-03-12T07:08:45.107Z,3.55
2023-03-12T07:11:12.597Z,3.65
2023-03-12T07:13:39.403Z,5.50
2023-03-12T07:16:06.968Z,4.28
2023-03-12T07:18:33.627Z,4.57
2023-03-12T07:21:00.429Z,4.28
2023-03-12T07:23:27.249Z,4.22
2023-03-12T07:25:53.788Z,4.40
2023-03-12T07:28:21.492Z,4.40
2023-03-12T07:33:20.379Z,5.00
2023-03-12T07:35:50.194Z,3.95
2023-03-12T07:38:18.169Z,3.97
2023-03-12T07:40:44.964Z,4.28
2023-03-12T07:43:12.738Z,4.22
2023-03-12T07:45:41.388Z,3.90
2023-03-12T07:48:08.585Z,4.13
2023-03-12T07:50:36.829Z,4.25
2023-03-12T07:53:05.419Z,4.28
2023-03-12T07:55:33.442Z,5.28
2023-03-12T07:58:00.673Z,4.95
2023-03-12T08:00:28.475Z,3.85
2023-03-12T08:02:55.430Z,4.00
2023-03-12T08:05:24.760Z,4.90
2023-03-12T08:07:52.583Z,4.25
2023-03-12T08:10:20.847Z,4.32
2023-03-12T08:12:47.930Z,4.68
2023-03-12T08:15:15.031Z,3.85
2023-03-12T08:17:41.685Z,4.15
2023-03-12T08:20:10.186Z,4.85
2023-03-12T08:22:37.978Z,4.63
2023-03-12T08:25:05.771Z,4.38
2023-03-12T08:27:32.441Z,4.65
2023-03-12T08:29:59.106Z,4.25
2023-03-12T08:32:25.905Z,3.70
2023-03-12T08:34:52.632Z,4.13
2023-03-12T08:37:19.358Z,4.57
2023-03-12T08:39:45.915Z,3.70
2023-03-12T08:42:12.520Z,4.32
2023-03-12T08:44:39.196Z,3.70
2023-03-12T08:47:05.867Z,3.80
2023-03-12T08:49:32.598Z,4.40
2023-03-12T08:51:59.458Z,4.28
2023-03-12T08:54:26.130Z,3.85
2023-03-12T08:56:53.105Z,3.45
2023-03-12T08:59:20.821Z,3.90
2023-03-12T09:01:48.178Z,4.18
2023-03-12T09:04:16.062Z,5.28
2023-03-12T09:06:43.401Z,3.90
2023-03-12T09:09:10.257Z,4.00
2023-03-12T09:11:39.916Z,4.85
2023-03-12T09:16:53.658Z,3.78
2023-03-12T09:19:20.696Z,4.38
2023-03-12T09:21:47.317Z,4.80
2023-03-12T09:24:14.188Z,4.15
2023-03-12T09:26:40.904Z,3.95
2023-03-12T09:29:07.618Z,4.15
2023-03-12T09:31:36.248Z,4.60
2023-03-12T09:34:03.219Z,4.72
2023-03-12T09:36:29.774Z,4.85
2023-03-12T09:38:56.385Z,4.55
2023-03-12T09:41:29.756Z,5.93
2023-03-12T09:44:10.324Z,4.03
2023-03-12T09:47:02.041Z,4.90
2023-03-12T09:49:40.798Z,3.83
2023-03-12T09:52:34.533Z,3.42
2023-03-12T09:55:14.974Z,4.40
2023-03-12T09:57:42.193Z,4.68
2023-03-12T10:00:15.418Z,4.97
2023-03-12T10:02:53.088Z,3.97
2023-03-12T10:05:27.419Z,5.10
2023-03-12T10:08:35.640Z,3.92
2023-03-12T10:11:17.830Z,4.30
2023-03-12T10:14:00.412Z,4.43
2023-03-12T10:16:33.003Z,3.38
2023-03-12T10:19:11.560Z,4.20
2023-03-12T10:21:40.952Z,3.15
2023-03-12T10:24:28.817Z,3.42
2023-03-12T10:26:58.250Z,3.97
2023-03-12T10:29:38.913Z,4.00
2023-03-12T10:32:11.635Z,4.03
2023-03-12T10:34:39.250Z,4.72
2023-03-12T10:37:22.405Z,4.57
2023-03-12T10:39:49.376Z,3.83
2023-03-12T10:44:51.090Z,4.28
2023-03-12T10:47:46.563Z,4.15
2023-03-12T10:50:25.948Z,4.63
2023-03-12T10:53:12.636Z,4.25
2023-03-12T10:55:40.028Z,4.07
2023-03-12T10:58:06.710Z,3.55
2023-03-12T11:00:34.130Z,3.53
2023-03-12T11:03:05.378Z,4.95
2023-03-12T11:05:34.314Z,4.38
2023-03-12T11:08:03.024Z,5.38
2023-03-12T11:10:32.750Z,4.13
2023-03-12T11:13:05.211Z,4.05
2023-03-12T11:15:39.888Z,3.78
2023-03-12T11:18:25.468Z,4.00
2023-03-12T11:21:14.718Z,3.83
2023-03-12T11:24:07.425Z,3.17
2023-03-12T11:26:39.678Z,4.45
2023-03-12T11:29:18.623Z,4.10
2023-03-12T11:31:52.823Z,3.50
2023-03-12T11:34:27.447Z,4.20
2023-03-12T11:37:15.609Z,4.00
2023-03-12T11:39:48.120Z,3.88
2023-03-12T11:42:29.069Z,3.53
2023-03-12T11:45:06.150Z,3.53
2023-03-12T11:47:45.610Z,4.13
2023-03-12T11:50:35.682Z,4.20
2023-03-12T11:53:43.732Z,3.80
2023-03-12T11:56:22.237Z,3.55
2023-03-12T11:59:25.158Z,4.30
2023-03-12T12:02:12.619Z,3.33
2023-03-12T12:05:28.514Z,3.70
2023-03-12T12:08:22.557Z,4.13
2023-03-12T12:11:03.442Z,4.78
2023-03-12T12:13:52.381Z,5.47
2023-03-12T12:16:40.694Z,5.45
2023-03-12T12:19:07.494Z,4.47
2023-03-12T12:21:37.224Z,3.40
2023-03-12T12:24:03.801Z,3.22
2023-03-12T12:26:52.155Z,3.63
2023-03-12T12:29:36.612Z,4.43
2023-03-12T12:34:49.127Z,3.45
2023-03-12T12:37:24.823Z,4.55
2023-03-12T12:40:10.692Z,3.80
2023-03-12T12:42:50.841Z,3.58
2023-03-12T12:45:19.015Z,4.38
2023-03-12T12:48:13.339Z,3.97
2023-03-12T12:50:40.030Z,3.47
2023-03-12T12:53:48.080Z,4.35
2023-03-12T12:56:17.815Z,3.95
2023-03-12T12:59:16.938Z,4.25
2023-03-12T13:01:44.360Z,5.13
2023-03-12T13:04:16.036Z,4.45
2023-03-12T13:07:17.001Z,4.45
2023-03-12T13:09:51.184Z,3.88
2023-03-12T13:12:35.071Z,5.20
2023-03-12T13:15:22.517Z,3.70
2023-03-12T13:17:52.138Z,5.22
2023-03-12T13:20:20.980Z,3.97
2023-03-12T13:23:15.287Z,4.40
2023-03-12T13:26:06.184Z,5.85
2023-03-12T13:28:35.180Z,5.90
2023-03-12T13:31:23.478Z,5.03
2023-03-12T13:33:52.970Z,7.40
2023-03-12T13:36:28.333Z,6.53
2023-03-12T13:39:07.560Z,5.78
2023-03-12T13:41:38.287Z,4.75
2023-03-12T13:44:31.674Z,6.63
2023-03-12T13:47:10.592Z,3.45
2023-03-12T13:49:43.452Z,4.50
2023-03-12T13:52:18.062Z,4.45
2023-03-12T13:54:47.987Z,6.78
2023-03-12T13:57:38.753Z,4.57
2023-03-12T14:00:15.736Z,4.28
2023-03-12T14:02:49.354Z,3.83
2023-03-12T14:05:18.426Z,4.40
2023-03-12T14:08:10.622Z,6.38
2023-03-12T14:10:56.107Z,5.50
2023-03-12T14:13:43.990Z,4.47
2023-03-12T14:16:17.878Z,4.65
2023-03-12T14:18:46.405Z,4.25
2023-03-12T14:21:16.155Z,4.97
2023-03-12T14:23:58.074Z,18.05
2023-03-12T14:26:31.952Z,6.07
2023-03-12T14:29:01.673Z,5.30
2023-03-12T14:31:30.678Z,4.38
2023-03-12T14:34:04.055Z,3.92
2023-03-12T14:36:50.921Z,3.90
2023-03-12T14:39:30.320Z,4.53
2023-03-12T14:42:05.409Z,4.03
2023-03-12T14:44:34.889Z,3.38
2023-03-12T14:47:04.181Z,3.67
2023-03-12T14:49:32.026Z,3.08
2023-03-12T14:51:58.576Z,4.38
2023-03-12T14:54:28.280Z,5.50
2023-03-12T14:56:55.042Z,5.30
2023-03-12T14:59:35.068Z,3.90
2023-03-12T15:02:13.825Z,4.22
2023-03-12T15:04:42.078Z,3.55
2023-03-12T15:07:13.545Z,4.28
2023-03-12T15:09:47.376Z,4.25
2023-03-12T15:12:18.949Z,3.70
2023-03-12T15:14:46.003Z,3.80
2023-03-12T15:17:17.475Z,4.82
2023-03-12T15:19:44.663Z,4.22
2023-03-12T15:22:16.999Z,3.83
2023-03-12T15:24:44.142Z,4.10
2023-03-12T15:27:21.898Z,3.60
2023-03-12T15:29:51.749Z,3.70
2023-03-12T15:32:21.329Z,3.53
2023-03-12T15:34:48.374Z,3.05
2023-03-12T15:37:41.174Z,4.10
2023-03-12T15:40:21.411Z,3.33
2023-03-12T15:42:49.710Z,3.38
2023-03-12T15:45:34.484Z,4.35
2023-03-12T15:48:01.603Z,3.17
2023-03-12T15:50:37.839Z,3.22
2023-03-12T15:53:25.534Z,3.13
2023-03-12T15:56:17.102Z,3.78
2023-03-12T15:58:43.715Z,3.58
2023-03-12T16:01:13.423Z,3.72
2023-03-12T16:03:41.562Z,3.03
2023-03-12T16:06:13.449Z,3.15
2023-03-12T16:08:48.725Z,3.40
2023-03-12T16:11:22.122Z,2.78
2023-03-12T16:13:50.720Z,3.10
2023-03-12T16:16:17.564Z,3.15
2023-03-12T16:21:11.188Z,3.47
2023-03-12T16:23:38.246Z,2.90
2023-03-12T16:26:05.759Z,2.70
2023-03-12T16:28:35.058Z,3.13
2023-03-12T16:31:02.084Z,3.20
2023-03-12T16:33:28.718Z,2.78
2023-03-12T16:35:57.158Z,3.08
2023-03-12T16:38:24.033Z,2.53
2023-03-12T16:40:52.026Z,2.88
2023-03-12T16:43:23.822Z,2.75
2023-03-12T16:45:52.186Z,3.35
2023-03-12T16:48:21.688Z,3.40
2023-03-12T16:50:51.160Z,2.80
2023-03-12T16:53:18.319Z,2.55
2023-03-12T16:55:49.758Z,2.42
2023-03-12T16:58:18.786Z,2.67
2023-03-12T17:00:45.583Z,2.25
2023-03-12T17:03:42.210Z,2.72
2023-03-12T17:06:15.785Z,2.55
2023-03-12T17:08:43.131Z,2.15
2023-03-12T17:11:27.848Z,2.78
2023-03-12T17:13:58.707Z,2.30
2023-03-12T17:16:25.786Z,2.22
2023-03-12T17:18:52.769Z,2.70
2023-03-12T17:21:20.232Z,2.50
2023-03-12T17:26:14.162Z,2.63
2023-03-12T17:28:40.799Z,2.15
2023-03-12T17:31:08.231Z,2.88
2023-03-12T17:33:34.946Z,2.80
2023-03-12T17:36:09.356Z,2.78
2023-03-12T17:38:36.653Z,3.53
2023-03-12T17:41:09.455Z,3.33
2023-03-12T17:43:41.172Z,2.38
2023-03-12T17:46:09.648Z,3.25
2023-03-12T17:48:36.579Z,2.88
2023-03-12T17:51:10.177Z,3.05
2023-03-12T17:56:06.833Z,2.95
2023-03-12T17:58:33.534Z,2.25
2023-03-12T18:01:00.159Z,2.70
2023-03-12T18:03:26.985Z,2.67
2023-03-12T18:05:53.626Z,2.88
2023-03-12T18:08:20.461Z,3.50
2023-03-12T18:10:48.179Z,3.75
2023-03-12T18:13:14.773Z,3.25
2023-03-12T18:15:41.431Z,2.92
2023-03-12T18:18:08.130Z,3.05
2023-03-12T18:20:39.114Z,3.35
2023-03-12T18:23:06.532Z,3.20
2023-03-12T18:25:33.096Z,2.17
2023-03-12T18:27:59.715Z,2.90
2023-03-12T18:30:28.083Z,3.03
2023-03-12T18:32:54.916Z,3.20
2023-03-12T18:35:22.703Z,4.00
2023-03-12T18:37:51.857Z,2.72
2023-03-12T18:40:18.502Z,3.67
2023-03-12T18:42:45.179Z,4.43
2023-03-12T18:45:12.080Z,3.78
2023-03-12T18:47:39.599Z,5.65
2023-03-12T18:52:34.219Z,3.20
2023-03-12T18:55:01.050Z,3.72
2023-03-12T18:57:27.728Z,3.25
2023-03-12T18:59:54.422Z,3.33
2023-03-12T19:02:21.058Z,4.38
2023-03-12T19:04:47.784Z,4.13
2023-03-12T19:07:14.362Z,4.38
2023-03-12T19:09:41.013Z,3.72
2023-03-12T19:12:07.680Z,3.95
2023-03-12T19:14:34.276Z,4.07
2023-03-12T19:17:00.895Z,4.70
2023-03-12T19:19:27.469Z,4.10
2023-03-12T19:21:54.072Z,4.82
2023-03-12T19:24:20.682Z,3.63
2023-03-12T19:26:47.372Z,3.92
2023-03-12T19:29:15.256Z,3.83
2023-03-12T19:31:42.610Z,4.18
2023-03-12T19:34:09.650Z,4.78
2023-03-12T19:36:36.318Z,4.55
2023-03-12T19:39:06.761Z,4.53
2023-03-12T19:41:40.620Z,4.55
2023-03-12T19:44:07.580Z,5.28
2023-03-12T19:46:34.154Z,4.65
2023-03-12T19:49:00.710Z,4.55
2023-03-12T19:51:27.501Z,4.65
2023-03-12T19:53:54.129Z,4.93
2023-03-12T19:56:22.202Z,4.18
2023-03-12T19:58:48.945Z,4.55
2023-03-12T20:01:15.890Z,5.85
2023-03-12T20:03:43.896Z,4.28
2023-03-12T20:06:11.611Z,4.60
2023-03-12T20:08:38.706Z,4.55
2023-03-12T20:11:08.367Z,5.40
2023-03-12T20:13:35.520Z,5.30
2023-03-12T20:16:02.140Z,4.03
2023-03-12T20:18:28.903Z,4.28
2023-03-12T20:20:55.735Z,4.18
2023-03-12T20:23:22.637Z,3.90
2023-03-12T20:25:50.516Z,3.60
2023-03-12T20:28:17.763Z,4.22
2023-03-12T20:30:44.870Z,4.22
2023-03-12T20:33:11.634Z,5.00
2023-03-12T20:35:38.759Z,4.32
2023-03-12T20:38:05.463Z,4.80
2023-03-12T20:40:32.302Z,4.13
2023-03-12T20:42:59.088Z,4.80
2023-03-12T20:45:25.915Z,4.55
2023-03-12T20:47:53.998Z,4.93
2023-03-12T20:50:20.665Z,4.60
2023-03-12T20:52:47.382Z,3.97
2023-03-12T20:55:14.032Z,4.30
2023-03-12T20:57:40.610Z,5.38
2023-03-12T21:00:07.993Z,4.85
2023-03-12T21:02:35.117Z,4.15
2023-03-12T21:05:02.013Z,4.97
2023-03-12T21:07:28.726Z,4.47
2023-03-12T21:09:55.306Z,4.35
2023-03-12T21:12:22.217Z,5.00
2023-03-12T21:14:49.194Z,5.43
2023-03-12T21:17:15.960Z,5.22
2023-03-12T21:19:43.282Z,5.60
2023-03-12T21:22:10.368Z,4.25
2023-03-12T21:24:37.073Z,6.35
2023-03-12T21:27:04.881Z,5.15
2023-03-12T21:31:58.421Z,4.53
2023-03-12T21:34:25.156Z,5.60
2023-03-12T21:36:51.778Z,4.55
2023-03-12T21:39:18.800Z,4.53
2023-03-12T21:41:45.599Z,5.38
2023-03-12T21:44:13.009Z,4.50
2023-03-12T21:46:40.884Z,5.78
2023-03-12T21:49:07.639Z,5.53
2023-03-12T21:51:34.262Z,5.55
2023-03-12T21:54:00.845Z,4.53
2023-03-12T21:56:28.832Z,5.35
2023-03-12T21:58:57.202Z,5.35
2023-03-12T22:01:24.513Z,4.45
2023-03-12T22:03:51.459Z,4.95
2023-03-12T22:06:18.177Z,3.95
2023-03-12T22:08:48.038Z,4.72
2023-03-12T22:11:15.792Z,6.00
2023-03-12T22:13:42.718Z,5.82
2023-03-12T22:16:11.308Z,4.97
2023-03-12T22:18:40.831Z,4.53
2023-03-12T22:21:08.676Z,5.50
2023-03-12T22:26:05.297Z,3.65
2023-03-12T22:28:32.849Z,5.22
2023-03-12T22:31:00.989Z,5.65
2023-03-12T22:33:28.359Z,5.28
2023-03-12T22:35:55.702Z,5.78
2023-03-12T22:38:23.198Z,6.18
2023-03-12T22:40:51.008Z,5.00
2023-03-12T22:43:17.625Z,5.53
2023-03-12T22:45:44.275Z,4.65
2023-03-12T22:48:10.977Z,5.38
2023-03-12T22:50:37.574Z,4.88
2023-03-12T22:53:04.218Z,5.13
2023-03-12T22:55:30.782Z,7.03
2023-03-12T22:57:57.425Z,4.63
2023-03-12T23:00:24.239Z,5.55
2023-03-12T23:02:51.007Z,6.05
2023-03-12T23:05:17.868Z,5.22
2023-03-12T23:07:44.676Z,5.05
2023-03-12T23:10:11.611Z,6.05
2023-03-12T23:12:38.260Z,6.63
2023-03-12T23:15:06.176Z,6.97
2023-03-12T23:17:32.818Z,6.28
2023-03-12T23:19:59.401Z,5.28
2023-03-12T23:22:25.959Z,6.10
2023-03-12T23:24:52.680Z,6.93
2023-03-12T23:27:19.320Z,4.80
2023-03-12T23:29:45.997Z,6.25
2023-03-12T23:32:13.216Z,5.15
2023-03-12T23:34:39.844Z,5.85
2023-03-12T23:37:07.116Z,6.30
2023-03-12T23:39:42.170Z,5.85
2023-03-12T23:42:15.085Z,5.97
2023-03-12T23:44:41.734Z,5.55
2023-03-12T23:47:08.422Z,5.57
2023-03-12T23:49:35.057Z,5.53
2023-03-12T23:52:01.846Z,5.15
2023-03-12T23:54:28.754Z,5.32
2023-03-12T23:56:56.255Z,5.63
2023-03-12T23:59:22.943Z,5.38
